Time;durP1;ratioP1;P1;durP2;ratioP2;P2;SDS_P1;SDS_P2;PMS_P1;PMS_P2;Temp;Humidity;BMP_temperature;BMP_pressure;BME280_temperature;BME280_humidity;BME280_pressure;Samples;Min_cycle;Max_cycle;Signal;HPM_P1;HPM_P2
2023/01/19 00:01:30;;;;;;;925.80;377.80;;;-0.30;99.90;;;;;;5030518;28;20234;-54
2023/01/19 00:03:58;;;;;;;469.57;358.93;;;-0.30;99.90;;;;;;5026107;28;20258;-54
2023/01/19 00:06:27;;;;;;;685.50;322.63;;;-0.30;99.90;;;;;;5029256;28;20278;-53
2023/01/19 00:08:55;;;;;;;606.67;527.53;;;-0.30;99.90;;;;;;5030412;28;20299;-53
2023/01/19 00:11:23;;;;;;;553.93;261.00;;;-0.30;99.90;;;;;;5030666;28;20217;-54
2023/01/19 00:13:52;;;;;;;235.00;213.07;;;-0.30;99.90;;;;;;5030302;28;20298;-54
2023/01/19 00:16:21;;;;;;;368.43;323.10;;;-0.30;99.90;;;;;;5030103;28;20215;-52
2023/01/19 00:18:52;;;;;;;425.30;249.10;;;-0.20;99.90;;;;;;5030438;28;20223;-53
2023/01/19 00:21:21;;;;;;;423.07;386.60;;;-0.30;99.90;;;;;;5021896;28;20743;-54
2023/01/19 00:23:51;;;;;;;314.77;281.83;;;-0.30;99.90;;;;;;5030417;28;20215;-52
2023/01/19 00:26:21;;;;;;;322.87;293.03;;;-0.30;99.90;;;;;;5028193;28;20560;-53
2023/01/19 00:28:49;;;;;;;293.50;267.70;;;-0.30;99.90;;;;;;5028140;28;20219;-54
2023/01/19 00:31:20;;;;;;;164.63;149.77;;;-0.30;99.90;;;;;;5023526;28;20213;-54
2023/01/19 00:33:50;;;;;;;150.43;137.03;;;-0.30;99.90;;;;;;5030099;28;20212;-54
2023/01/19 00:36:20;;;;;;;536.13;482.77;;;-0.30;99.90;;;;;;5030110;28;20658;-53
2023/01/19 00:38:48;;;;;;;623.10;324.30;;;-0.30;99.90;;;;;;5029339;28;20235;-54
2023/01/19 00:41:16;;;;;;;464.10;416.77;;;-0.20;99.90;;;;;;5027959;28;20233;-54
2023/01/19 00:43:44;;;;;;;454.27;353.27;;;-0.20;99.90;;;;;;5023407;28;20701;-53
2023/01/19 00:46:12;;;;;;;325.93;271.07;;;-0.20;99.90;;;;;;5029626;28;20263;-54
2023/01/19 00:48:40;;;;;;;278.47;225.00;;;-0.20;99.90;;;;;;5029785;28;20322;-54
2023/01/19 00:51:08;;;;;;;937.17;338.63;;;-0.20;99.90;;;;;;5028748;28;20579;-52
2023/01/19 00:53:37;;;;;;;622.43;466.97;;;-0.30;99.90;;;;;;5029270;28;20620;-54
2023/01/19 00:56:06;;;;;;;426.00;351.93;;;-0.30;99.90;;;;;;5027038;28;20296;-53
2023/01/19 00:58:34;;;;;;;257.90;201.63;;;-0.20;99.90;;;;;;5029529;28;20299;-53
2023/01/19 01:01:03;;;;;;;1115.67;419.47;;;-0.20;99.90;;;;;;5029210;28;20315;-53
2023/01/19 01:03:32;;;;;;;487.47;439.37;;;-0.20;99.90;;;;;;5028983;28;20253;-53
2023/01/19 01:06:00;;;;;;;495.27;261.63;;;-0.20;99.90;;;;;;5029017;28;20300;-53
2023/01/19 01:08:28;;;;;;;1068.33;489.53;;;-0.30;99.90;;;;;;5029372;28;20213;-53
2023/01/19 01:10:58;;;;;;;435.60;346.43;;;-0.20;99.90;;;;;;5029011;28;20810;-53
2023/01/19 01:13:26;;;;;;;396.57;357.47;;;-0.20;99.90;;;;;;5029023;28;20233;-53
2023/01/19 01:15:56;;;;;;;899.80;373.07;;;-0.20;99.90;;;;;;5016934;28;20599;-53
2023/01/19 01:18:25;;;;;;;176.00;161.40;;;-0.10;99.90;;;;;;5028243;28;20218;-53
2023/01/19 01:20:53;;;;;;;903.27;409.33;;;-0.10;99.90;;;;;;5029170;28;20247;-52
2023/01/19 01:23:23;;;;;;;345.83;290.80;;;0.00;99.90;;;;;;5028242;28;20281;-53
2023/01/19 01:25:51;;;;;;;609.07;422.03;;;-0.10;99.90;;;;;;5029377;28;20304;-53
2023/01/19 01:28:20;;;;;;;1021.37;475.00;;;-0.10;99.90;;;;;;5020619;28;20211;-53
2023/01/19 01:30:53;;;;;;;1409.63;454.60;;;-0.20;99.90;;;;;;5029985;28;20257;-53
2023/01/19 01:33:21;;;;;;;658.57;297.87;;;-0.20;99.90;;;;;;5024793;28;20210;-53
2023/01/19 01:36:09;;;;;;;1927.37;633.20;;;-0.30;99.90;;;;;;5022621;28;20199;-53
2023/01/19 01:38:37;;;;;;;641.60;502.80;;;-0.40;99.90;;;;;;5022722;28;20248;-53
2023/01/19 01:41:05;;;;;;;1014.73;499.93;;;-0.40;99.90;;;;;;5021532;28;20232;-53
2023/01/19 01:43:46;;;;;;;1322.80;472.33;;;-0.50;99.90;;;;;;5028460;28;20236;-53
2023/01/19 01:46:15;;;;;;;1809.93;563.90;;;-0.50;99.90;;;;;;5015610;28;20204;-53
2023/01/19 01:48:49;;;;;;;1374.83;676.97;;;-0.50;99.90;;;;;;5034435;28;20204;-53
2023/01/19 01:51:26;;;;;;;1226.97;523.13;;;-0.50;99.90;;;;;;5045230;28;20260;-53
2023/01/19 01:54:12;;;;;;;614.27;503.47;;;-0.50;99.90;;;;;;5028353;28;20223;-52
2023/01/19 01:56:43;;;;;;;1999.90;638.07;;;-0.50;99.90;;;;;;5042503;28;20307;-53
2023/01/19 01:59:24;;;;;;;769.43;513.73;;;-0.40;99.90;;;;;;5048905;28;20301;-53
2023/01/19 02:04:44;;;;;;;1030.87;391.50;;;-0.40;99.90;;;;;;5050219;28;20278;-53
2023/01/19 02:15:34;;;;;;;867.87;381.87;;;-0.30;99.90;;;;;;5052222;28;20862;-52
2023/01/19 02:18:02;;;;;;;629.57;316.83;;;-0.30;99.90;;;;;;5052252;28;20686;-53
2023/01/19 02:20:32;;;;;;;615.30;407.87;;;-0.30;99.90;;;;;;5052499;28;20278;-54
2023/01/19 02:23:06;;;;;;;660.70;337.83;;;-0.20;99.90;;;;;;5034910;28;20315;-55
2023/01/19 02:25:35;;;;;;;1299.50;493.07;;;-0.20;99.90;;;;;;5032372;28;20685;-52
2023/01/19 02:28:04;;;;;;;438.47;395.90;;;-0.20;99.90;;;;;;5051435;28;20980;-53
2023/01/19 02:30:34;;;;;;;368.03;329.47;;;-0.20;99.90;;;;;;5035868;28;20761;-52
2023/01/19 02:33:02;;;;;;;397.50;357.60;;;-0.20;99.90;;;;;;5048567;28;20628;-52
2023/01/19 02:35:32;;;;;;;608.70;372.63;;;-0.10;99.90;;;;;;5051939;28;20210;-52
2023/01/19 02:38:02;;;;;;;347.57;311.70;;;-0.10;99.90;;;;;;5050722;28;20745;-54
2023/01/19 02:40:31;;;;;;;448.53;325.93;;;-0.10;99.90;;;;;;5041408;28;20725;-53
2023/01/19 02:43:02;;;;;;;1587.23;359.93;;;-0.10;99.90;;;;;;5051609;28;20317;-54
2023/01/19 02:45:31;;;;;;;562.97;371.43;;;-0.20;99.90;;;;;;5051657;28;20311;-54
2023/01/19 02:47:59;;;;;;;1659.33;522.77;;;-0.20;99.90;;;;;;5051476;28;20734;-52
2023/01/19 02:50:42;;;;;;;1196.83;494.90;;;-0.10;99.90;;;;;;5051668;28;20228;-54
2023/01/19 02:53:30;;;;;;;848.93;371.73;;;-0.10;99.90;;;;;;5051559;28;20207;-52
2023/01/19 02:56:06;;;;;;;388.53;349.83;;;-0.10;99.90;;;;;;5051450;28;20247;-54
2023/01/19 02:58:40;;;;;;;401.67;275.10;;;-0.10;99.90;;;;;;5037542;28;20200;-53
2023/01/19 03:01:19;;;;;;;243.87;175.97;;;-0.10;99.90;;;;;;5051807;28;20293;-53
2023/01/19 03:03:54;;;;;;;263.80;208.90;;;-0.10;99.90;;;;;;5051352;28;20341;-54
2023/01/19 03:06:35;;;;;;;442.63;325.23;;;-0.10;99.90;;;;;;5051357;28;20212;-54
2023/01/19 03:09:11;;;;;;;931.47;506.13;;;-0.20;99.90;;;;;;5030999;28;20267;-54
2023/01/19 03:11:46;;;;;;;438.50;271.07;;;-0.10;99.90;;;;;;5046080;28;20240;-54
2023/01/19 03:14:22;;;;;;;302.37;209.57;;;-0.20;99.90;;;;;;5023401;28;20211;-53
2023/01/19 03:16:54;;;;;;;1520.73;394.93;;;-0.10;99.90;;;;;;5051254;28;20251;-53
2023/01/19 03:19:27;;;;;;;1529.40;320.83;;;-0.20;99.90;;;;;;5051435;28;20253;-52
2023/01/19 03:21:58;;;;;;;671.13;384.83;;;-0.20;99.90;;;;;;5051142;28;20638;-54
2023/01/19 03:24:30;;;;;;;373.53;179.03;;;-0.10;99.90;;;;;;5045608;28;20282;-54
2023/01/19 03:27:03;;;;;;;1652.47;407.07;;;-0.10;99.90;;;;;;5044705;28;20283;-53
2023/01/19 03:29:36;;;;;;;1975.00;627.13;;;-0.10;99.90;;;;;;5043930;28;20321;-53
2023/01/19 03:32:10;;;;;;;398.10;296.00;;;-0.20;99.90;;;;;;5051123;28;20231;-52
2023/01/19 03:34:40;;;;;;;1493.30;519.57;;;-0.30;99.90;;;;;;5024045;28;20269;-53
2023/01/19 03:37:11;;;;;;;1346.53;517.77;;;-0.30;99.90;;;;;;5050692;28;20288;-53
2023/01/19 03:39:39;;;;;;;355.03;318.17;;;-0.40;99.90;;;;;;5050285;28;20912;-54
2023/01/19 03:42:11;;;;;;;467.00;266.70;;;-0.40;99.90;;;;;;5050550;28;20266;-54
2023/01/19 03:44:43;;;;;;;329.87;224.27;;;-0.50;99.90;;;;;;5050528;28;20205;-53
2023/01/19 03:47:14;;;;;;;1542.43;527.20;;;-0.50;99.90;;;;;;5034476;28;20216;-53
2023/01/19 03:49:45;;;;;;;968.93;432.90;;;-0.50;99.90;;;;;;5050843;28;20292;-52
2023/01/19 03:52:13;;;;;;;614.60;373.87;;;-0.40;99.90;;;;;;5048567;28;20236;-53
2023/01/19 03:54:41;;;;;;;1141.87;422.83;;;-0.40;99.90;;;;;;5050694;28;20275;-53
2023/01/19 03:57:09;;;;;;;1090.20;387.67;;;-0.30;99.90;;;;;;5050671;28;20729;-53
2023/01/19 03:59:37;;;;;;;736.07;266.57;;;-0.30;99.90;;;;;;5050344;28;20253;-53
2023/01/19 04:02:06;;;;;;;337.13;305.10;;;-0.30;99.90;;;;;;5042032;28;20263;-53
2023/01/19 04:04:34;;;;;;;652.83;358.43;;;-0.30;99.90;;;;;;5050546;28;20208;-53
2023/01/19 04:07:02;;;;;;;846.60;422.57;;;-0.30;99.90;;;;;;5027081;28;20678;-54
2023/01/19 04:09:30;;;;;;;1385.27;517.03;;;-0.20;99.90;;;;;;5050254;28;20691;-53
2023/01/19 04:12:00;;;;;;;1445.30;500.23;;;-0.20;99.90;;;;;;5050259;28;20255;-54
2023/01/19 04:14:28;;;;;;;736.27;332.13;;;-0.20;99.90;;;;;;5041853;28;20239;-53
2023/01/19 04:16:56;;;;;;;728.20;368.20;;;-0.20;99.90;;;;;;5034046;28;20278;-53
2023/01/19 04:19:25;;;;;;;871.43;252.30;;;-0.20;99.90;;;;;;5050067;28;20775;-53
2023/01/19 04:21:54;;;;;;;1054.17;376.13;;;-0.30;99.90;;;;;;5049972;28;20303;-53
2023/01/19 04:24:22;;;;;;;633.77;359.53;;;-0.30;99.90;;;;;;5049590;28;20208;-53
2023/01/19 04:26:52;;;;;;;899.30;481.27;;;-0.40;99.90;;;;;;5050003;28;20490;-53
2023/01/19 04:29:20;;;;;;;548.07;371.67;;;-0.50;99.90;;;;;;5050006;28;20236;-53
2023/01/19 04:31:48;;;;;;;452.50;365.03;;;-0.50;99.90;;;;;;5045521;28;20238;-53
2023/01/19 04:34:16;;;;;;;443.13;371.10;;;-0.50;99.90;;;;;;5049867;28;20260;-54
2023/01/19 04:36:45;;;;;;;377.83;281.70;;;-0.50;99.90;;;;;;5049889;28;20230;-52
2023/01/19 04:39:14;;;;;;;558.10;382.80;;;-0.50;99.90;;;;;;5049168;28;20715;-53
2023/01/19 04:41:42;;;;;;;600.63;410.03;;;-0.50;99.90;;;;;;5049859;28;20641;-53
2023/01/19 04:44:10;;;;;;;609.67;361.60;;;-0.50;99.90;;;;;;5049563;28;20266;-53
2023/01/19 04:46:38;;;;;;;749.43;316.90;;;-0.50;99.90;;;;;;5049735;28;20242;-53
2023/01/19 04:49:06;;;;;;;897.27;313.10;;;-0.50;99.90;;;;;;5040504;28;20286;-52
2023/01/19 04:51:34;;;;;;;1296.97;354.97;;;-0.50;99.90;;;;;;5049292;28;20295;-53
2023/01/19 04:54:04;;;;;;;445.67;284.07;;;-0.50;99.90;;;;;;5049378;28;20314;-52
2023/01/19 04:56:32;;;;;;;699.93;345.07;;;-0.40;99.90;;;;;;5049344;28;20666;-53
2023/01/19 04:59:00;;;;;;;579.73;340.07;;;-0.40;99.90;;;;;;5049394;28;20319;-52
2023/01/19 05:01:28;;;;;;;983.33;396.80;;;-0.40;99.90;;;;;;5049363;28;20213;-53
2023/01/19 05:03:59;;;;;;;679.47;337.83;;;-0.40;99.90;;;;;;5043856;28;20221;-53
2023/01/19 05:06:27;;;;;;;1329.43;281.43;;;-0.40;99.90;;;;;;5040845;28;20241;-53
2023/01/19 05:08:55;;;;;;;468.23;296.23;;;-0.40;99.90;;;;;;5048980;28;20245;-53
2023/01/19 05:11:25;;;;;;;873.50;409.90;;;-0.30;99.90;;;;;;5049378;28;20571;-54
2023/01/19 05:13:53;;;;;;;1093.77;308.77;;;-0.30;99.90;;;;;;5044691;28;20240;-53
2023/01/19 05:16:21;;;;;;;546.53;330.03;;;-0.40;99.90;;;;;;5049072;28;20241;-52
2023/01/19 05:18:49;;;;;;;1999.90;462.00;;;-0.30;99.90;;;;;;5049102;28;20216;-52
2023/01/19 05:21:17;;;;;;;1019.87;386.20;;;-0.40;99.90;;;;;;5049279;28;20297;-52
2023/01/19 05:23:45;;;;;;;1999.90;396.23;;;-0.40;99.90;;;;;;5048502;28;20637;-54
2023/01/19 05:26:13;;;;;;;1999.90;525.13;;;-0.50;99.90;;;;;;5044075;28;20646;-53
2023/01/19 05:28:42;;;;;;;679.77;262.40;;;-0.50;99.90;;;;;;5049225;28;20210;-52
2023/01/19 05:31:10;;;;;;;715.77;286.07;;;-0.50;99.90;;;;;;5035982;28;20670;-54
2023/01/19 05:33:39;;;;;;;426.70;213.70;;;-0.60;99.90;;;;;;5042351;28;20310;-54
2023/01/19 05:36:08;;;;;;;489.60;238.33;;;-0.60;99.90;;;;;;5045291;28;20209;-53
2023/01/19 05:38:36;;;;;;;1137.87;416.40;;;-0.60;99.90;;;;;;5038534;28;20276;-53
2023/01/19 05:41:04;;;;;;;540.17;194.80;;;-0.60;99.90;;;;;;5045473;28;20269;-53
2023/01/19 05:43:32;;;;;;;883.37;353.73;;;-0.60;99.90;;;;;;5048686;28;20227;-53
2023/01/19 05:46:03;;;;;;;535.37;346.27;;;-0.60;99.90;;;;;;5048800;28;20295;-52
2023/01/19 05:48:31;;;;;;;1813.30;552.83;;;-0.50;99.90;;;;;;5048902;28;20200;-52
2023/01/19 05:51:00;;;;;;;1781.17;366.93;;;-0.50;99.90;;;;;;5048615;28;20232;-53
2023/01/19 05:53:29;;;;;;;976.13;452.10;;;-0.60;99.90;;;;;;5048505;28;20237;-53
2023/01/19 05:56:00;;;;;;;1999.90;510.13;;;-0.60;99.90;;;;;;5038822;28;20246;-53
2023/01/19 05:58:28;;;;;;;1999.90;726.20;;;-0.60;99.90;;;;;;5030297;28;20838;-54
2023/01/19 06:00:56;;;;;;;1415.70;452.90;;;-0.60;99.90;;;;;;5048706;28;20322;-53
2023/01/19 06:03:26;;;;;;;749.13;316.30;;;-0.60;99.90;;;;;;5042828;28;20231;-54
2023/01/19 06:05:57;;;;;;;938.60;398.70;;;-0.60;99.90;;;;;;5028922;28;20220;-54
2023/01/19 06:08:25;;;;;;;1393.33;373.73;;;-0.60;99.90;;;;;;5028879;28;20235;-52
2023/01/19 06:10:53;;;;;;;1999.90;430.37;;;-0.60;99.90;;;;;;5028002;28;20321;-52
2023/01/19 06:13:21;;;;;;;1353.33;460.87;;;-0.60;99.90;;;;;;5025827;28;20201;-53
2023/01/19 06:15:55;;;;;;;1861.20;582.73;;;-0.60;99.90;;;;;;5022101;28;20311;-52
2023/01/19 06:18:23;;;;;;;1099.13;427.30;;;-0.60;99.90;;;;;;5025525;28;20214;-53
2023/01/19 06:20:57;;;;;;;1999.90;703.00;;;-0.60;99.90;;;;;;5028811;28;20240;-53
2023/01/19 06:23:25;;;;;;;839.60;388.93;;;-0.70;99.90;;;;;;5027333;28;20286;-54
2023/01/19 06:25:53;;;;;;;1999.90;587.00;;;-0.70;99.90;;;;;;5017368;28;20248;-53
2023/01/19 06:28:21;;;;;;;1999.90;659.47;;;-0.70;99.90;;;;;;5028487;28;20290;-53
2023/01/19 06:30:50;;;;;;;1725.93;467.37;;;-0.70;99.90;;;;;;5028414;28;20796;-53
2023/01/19 06:33:19;;;;;;;1999.90;563.37;;;-0.70;99.90;;;;;;5028134;28;20217;-54
2023/01/19 06:35:49;;;;;;;1470.27;454.53;;;-0.70;99.90;;;;;;5028412;28;20299;-53
2023/01/19 06:38:19;;;;;;;1999.90;781.57;;;-0.70;99.90;;;;;;5028279;28;20240;-54
2023/01/19 06:40:53;;;;;;;1999.90;587.53;;;-0.70;99.90;;;;;;5028396;28;20334;-53
2023/01/19 06:43:22;;;;;;;1999.90;671.43;;;-0.70;99.90;;;;;;5028325;28;20632;-53
2023/01/19 06:45:50;;;;;;;1721.87;423.93;;;-0.70;99.90;;;;;;5028510;28;20308;-53
2023/01/19 06:48:18;;;;;;;1999.90;598.10;;;-0.70;99.90;;;;;;5028231;28;20304;-53
2023/01/19 06:50:48;;;;;;;1999.90;481.93;;;-0.80;99.90;;;;;;5030314;28;20759;-53
2023/01/19 06:53:19;;;;;;;1999.90;637.03;;;-0.70;99.90;;;;;;5025690;28;20237;-54
2023/01/19 06:55:47;;;;;;;1999.90;623.50;;;-0.60;99.90;;;;;;5028178;28;20208;-53
2023/01/19 06:58:16;;;;;;;1999.90;541.33;;;-0.60;99.90;;;;;;5032038;28;20201;-53
2023/01/19 07:00:44;;;;;;;1999.90;641.03;;;-0.60;99.90;;;;;;5051537;28;20271;-53
2023/01/19 07:03:19;;;;;;;1806.40;482.37;;;-0.60;99.90;;;;;;5044786;28;20208;-54
2023/01/19 07:05:51;;;;;;;1017.43;405.10;;;-0.60;99.90;;;;;;5024603;28;20297;-53
2023/01/19 07:08:21;;;;;;;471.87;184.27;;;-0.50;99.90;;;;;;5051503;28;20350;-52
2023/01/19 07:10:49;;;;;;;1999.90;746.13;;;-0.50;99.90;;;;;;5051183;28;20237;-53
2023/01/19 07:13:38;;;;;;;1551.90;457.17;;;-0.50;99.90;;;;;;5051423;28;20223;-53
2023/01/19 07:16:08;;;;;;;1564.57;402.53;;;-0.40;99.90;;;;;;5051230;28;20301;-53
2023/01/19 07:18:37;;;;;;;620.83;266.50;;;-0.30;99.90;;;;;;5051641;28;20219;-53
2023/01/19 07:21:06;;;;;;;1067.40;328.30;;;-0.30;99.90;;;;;;5051369;28;20316;-53
2023/01/19 07:23:36;;;;;;;1999.90;584.30;;;-0.30;99.90;;;;;;5035334;28;20698;-53
2023/01/19 07:26:05;;;;;;;1208.47;396.90;;;-0.30;99.90;;;;;;5048642;28;20266;-52
2023/01/19 07:28:33;;;;;;;1999.90;463.47;;;-0.30;99.90;;;;;;5034765;28;20211;-53
2023/01/19 07:31:01;;;;;;;1999.90;582.43;;;-0.30;99.90;;;;;;5044439;28;20262;-53
2023/01/19 07:33:29;;;;;;;1158.33;357.73;;;-0.20;99.90;;;;;;5050917;28;20212;-53
2023/01/19 07:35:57;;;;;;;1538.37;464.80;;;-0.30;99.90;;;;;;5050782;28;20299;-53
2023/01/19 07:38:25;;;;;;;1508.53;426.10;;;-0.20;99.90;;;;;;5050458;28;20294;-53
2023/01/19 07:41:00;;;;;;;1283.73;328.53;;;-0.20;99.90;;;;;;5050923;28;20319;-52
2023/01/19 07:43:28;;;;;;;1180.57;418.40;;;-0.10;99.90;;;;;;5037664;28;20229;-53
2023/01/19 07:45:56;;;;;;;1999.90;394.83;;;-0.10;99.90;;;;;;5040628;28;20231;-53
2023/01/19 07:48:25;;;;;;;722.60;311.60;;;-0.10;99.90;;;;;;5051420;28;20209;-54
2023/01/19 07:50:53;;;;;;;1301.13;381.73;;;-0.10;99.90;;;;;;5051262;28;20264;-53
2023/01/19 07:53:21;;;;;;;1001.70;273.17;;;0.00;99.90;;;;;;5050185;28;20312;-53
2023/01/19 07:55:56;;;;;;;503.23;195.77;;;0.00;99.90;;;;;;5050401;28;20713;-53
2023/01/19 07:58:25;;;;;;;1664.13;364.27;;;0.00;99.90;;;;;;5035072;28;20274;-53
2023/01/19 08:00:53;;;;;;;677.47;270.70;;;0.10;99.90;;;;;;5035472;28;20796;-53
2023/01/19 08:03:22;;;;;;;789.30;291.47;;;0.10;99.90;;;;;;5044324;28;20566;-53
2023/01/19 08:05:51;;;;;;;1999.90;448.90;;;0.10;99.90;;;;;;5050047;28;20267;-54
2023/01/19 08:08:19;;;;;;;1188.50;352.70;;;0.10;99.90;;;;;;5040165;28;20320;-54
2023/01/19 08:10:51;;;;;;;1723.83;302.53;;;0.20;99.90;;;;;;5042513;28;20243;-52
2023/01/19 08:13:21;;;;;;;300.83;216.90;;;0.20;99.90;;;;;;5050194;28;20241;-53
2023/01/19 08:15:50;;;;;;;282.03;175.17;;;0.20;99.90;;;;;;5050700;28;20234;-53
2023/01/19 08:18:19;;;;;;;1136.70;375.13;;;0.30;99.90;;;;;;5050357;28;20210;-52
2023/01/19 08:20:47;;;;;;;812.20;229.00;;;0.30;99.90;;;;;;5045417;28;20805;-55
2023/01/19 08:23:16;;;;;;;1526.40;324.13;;;0.30;99.90;;;;;;5040103;28;20216;-53
2023/01/19 08:25:45;;;;;;;1999.90;488.87;;;0.20;99.90;;;;;;5033059;28;20236;-54
2023/01/19 08:28:15;;;;;;;1981.50;438.10;;;0.30;99.90;;;;;;5050320;28;20233;-53
2023/01/19 08:30:52;;;;;;;1999.90;415.27;;;0.30;99.90;;;;;;5050340;28;20316;-52
2023/01/19 08:33:21;;;;;;;979.50;266.80;;;0.30;99.90;;;;;;5049439;28;20213;-54
2023/01/19 08:35:52;;;;;;;1013.60;255.00;;;0.30;99.90;;;;;;5050029;28;20208;-52
2023/01/19 08:38:20;;;;;;;1657.27;387.60;;;0.40;99.90;;;;;;5049948;28;20236;-54
2023/01/19 08:40:49;;;;;;;1371.63;332.33;;;0.40;99.90;;;;;;5049585;28;20294;-54
2023/01/19 08:43:17;;;;;;;569.17;222.40;;;0.50;99.90;;;;;;5049756;28;20209;-55
2023/01/19 08:45:52;;;;;;;1999.90;612.13;;;0.50;99.90;;;;;;5049371;28;20567;-53
2023/01/19 08:48:22;;;;;;;1096.37;221.83;;;0.50;99.90;;;;;;5036422;28;20542;-53
2023/01/19 08:50:51;;;;;;;636.13;220.43;;;0.50;99.90;;;;;;5037761;28;20222;-53
2023/01/19 08:53:22;;;;;;;668.97;239.63;;;0.50;99.90;;;;;;5048894;28;20212;-53
2023/01/19 08:55:54;;;;;;;1157.03;216.00;;;0.60;99.90;;;;;;5028099;28;20201;-53
2023/01/19 08:58:22;;;;;;;566.87;214.07;;;0.50;99.90;;;;;;5036717;28;20252;-54
2023/01/19 09:00:51;;;;;;;1542.80;373.63;;;0.60;99.90;;;;;;5026780;28;20712;-53
2023/01/19 09:03:21;;;;;;;956.53;222.40;;;0.60;99.90;;;;;;5043185;28;20275;-52
2023/01/19 09:05:49;;;;;;;283.73;98.60;;;0.60;99.90;;;;;;5049602;28;20229;-54
2023/01/19 09:08:18;;;;;;;196.47;137.93;;;0.60;99.90;;;;;;5031684;28;20214;-54
2023/01/19 09:10:47;;;;;;;603.33;163.50;;;0.60;99.90;;;;;;5036906;28;20303;-54
2023/01/19 09:13:17;;;;;;;393.50;152.60;;;0.60;99.90;;;;;;5039607;28;20209;-54
2023/01/19 09:15:45;;;;;;;558.17;223.93;;;0.60;99.90;;;;;;5048863;28;20201;-54
2023/01/19 09:18:16;;;;;;;411.63;174.30;;;0.60;99.90;;;;;;5048825;28;20209;-52
2023/01/19 09:20:46;;;;;;;953.63;217.37;;;0.70;99.90;;;;;;5021708;28;20227;-54
2023/01/19 09:23:16;;;;;;;396.83;161.73;;;0.60;99.90;;;;;;5048417;28;20236;-54
2023/01/19 09:25:46;;;;;;;1353.10;261.07;;;0.70;99.90;;;;;;5049050;28;20222;-53
2023/01/19 09:28:16;;;;;;;820.07;249.97;;;0.70;99.90;;;;;;5038127;28;20238;-54
2023/01/19 09:30:45;;;;;;;872.53;191.43;;;0.70;99.90;;;;;;5031839;28;20233;-54
2023/01/19 09:33:16;;;;;;;593.77;214.67;;;0.80;99.90;;;;;;5048671;28;20214;-53
2023/01/19 09:35:46;;;;;;;321.30;118.47;;;0.80;99.90;;;;;;5039383;28;20288;-54
2023/01/19 09:38:15;;;;;;;678.47;186.93;;;0.90;99.90;;;;;;5048532;28;20243;-54
2023/01/19 09:40:47;;;;;;;796.23;196.30;;;0.90;99.90;;;;;;5039241;28;20873;-53
2023/01/19 09:43:22;;;;;;;580.40;209.83;;;0.90;99.90;;;;;;5022284;28;20205;-53
2023/01/19 09:45:53;;;;;;;411.00;170.53;;;0.90;99.90;;;;;;5049091;28;20260;-54
2023/01/19 09:48:30;;;;;;;421.57;180.13;;;0.90;99.90;;;;;;5041872;28;20654;-53
2023/01/19 09:51:02;;;;;;;395.37;126.13;;;1.00;99.90;;;;;;5037641;28;20264;-54
2023/01/19 09:53:43;;;;;;;226.37;109.93;;;1.00;99.90;;;;;;5048103;28;20262;-53
2023/01/19 09:56:13;;;;;;;388.90;167.93;;;1.00;99.90;;;;;;5048819;28;20208;-53
2023/01/19 09:58:42;;;;;;;795.03;184.00;;;1.10;99.90;;;;;;5048987;28;20266;-53
2023/01/19 10:01:29;;;;;;;107.83;65.80;;;1.10;99.90;;;;;;5036614;28;20238;-53
2023/01/19 10:04:20;;;;;;;296.07;166.53;;;1.10;99.90;;;;;;5047391;28;20229;-54
2023/01/19 10:06:50;;;;;;;1239.93;222.30;;;1.10;99.90;;;;;;5041683;28;20251;-53
2023/01/19 10:09:27;;;;;;;360.10;168.03;;;1.10;99.90;;;;;;5048194;28;20834;-52
2023/01/19 10:12:02;;;;;;;535.80;182.27;;;1.00;99.90;;;;;;5048308;28;20584;-54
2023/01/19 10:14:36;;;;;;;841.40;147.77;;;1.00;99.90;;;;;;5038958;28;20228;-53
2023/01/19 10:17:18;;;;;;;537.20;199.63;;;1.00;99.90;;;;;;5048429;28;20210;-54
2023/01/19 10:19:51;;;;;;;291.83;123.97;;;1.10;99.90;;;;;;5048444;28;20304;-54
2023/01/19 10:22:21;;;;;;;409.77;136.93;;;1.20;99.90;;;;;;5035747;28;20211;-54
2023/01/19 10:24:54;;;;;;;1999.90;345.30;;;1.30;99.90;;;;;;5050944;28;20233;-54
2023/01/19 10:27:28;;;;;;;240.93;135.83;;;1.20;99.90;;;;;;5052191;28;20229;-53
2023/01/19 10:29:57;;;;;;;441.63;185.87;;;1.20;99.90;;;;;;5046695;28;20257;-54
2023/01/19 10:32:27;;;;;;;345.33;111.93;;;1.20;99.90;;;;;;5042517;28;20734;-53
2023/01/19 10:34:58;;;;;;;127.53;92.70;;;1.20;99.90;;;;;;5050028;28;20221;-54
2023/01/19 10:37:30;;;;;;;687.40;171.03;;;1.30;99.90;;;;;;5051613;28;20289;-53
2023/01/19 10:40:07;;;;;;;1590.27;377.80;;;1.20;99.90;;;;;;5034727;28;20239;-54
2023/01/19 10:42:36;;;;;;;276.40;138.17;;;1.20;99.90;;;;;;5051558;28;20929;-54
2023/01/19 10:45:16;;;;;;;1805.13;382.43;;;1.30;99.90;;;;;;5051817;28;20593;-54
2023/01/19 10:47:45;;;;;;;564.83;197.07;;;1.30;99.90;;;;;;5051148;28;20240;-53
2023/01/19 10:50:26;;;;;;;240.47;134.33;;;1.30;99.90;;;;;;5051776;28;20919;-53
2023/01/19 10:52:56;;;;;;;270.63;135.63;;;1.20;99.90;;;;;;5044551;28;20207;-54
2023/01/19 10:55:27;;;;;;;580.77;236.10;;;1.20;99.90;;;;;;5045711;28;20663;-53
2023/01/19 10:57:57;;;;;;;1648.67;299.37;;;1.30;99.90;;;;;;5047046;28;20213;-51
2023/01/19 11:00:36;;;;;;;480.83;111.33;;;1.30;99.90;;;;;;5042679;28;20225;-51
2023/01/19 11:03:20;;;;;;;218.83;135.40;;;1.30;99.90;;;;;;5051502;28;20236;-50
2023/01/19 11:05:51;;;;;;;528.60;127.97;;;1.30;99.90;;;;;;5051972;28;20209;-50
2023/01/19 11:08:23;;;;;;;645.80;235.60;;;1.30;99.90;;;;;;5051276;28;20296;-51
2023/01/19 11:10:55;;;;;;;189.13;121.60;;;1.30;99.90;;;;;;5045769;28;20264;-50
2023/01/19 11:13:23;;;;;;;666.57;235.87;;;1.40;99.90;;;;;;5046486;28;20238;-52
2023/01/19 11:15:56;;;;;;;357.27;122.43;;;1.40;99.90;;;;;;5051339;28;20206;-54
2023/01/19 11:18:28;;;;;;;219.20;116.20;;;1.50;99.90;;;;;;5051324;28;20213;-52
2023/01/19 11:21:01;;;;;;;286.93;90.27;;;1.60;99.90;;;;;;5041036;28;20261;-50
2023/01/19 11:23:31;;;;;;;329.53;118.37;;;1.70;99.90;;;;;;5050896;28;20237;-51
2023/01/19 11:26:01;;;;;;;448.30;129.63;;;1.70;99.90;;;;;;5050636;28;20562;-50
2023/01/19 11:28:32;;;;;;;277.40;134.43;;;1.60;99.90;;;;;;5050812;28;20859;-50
2023/01/19 11:31:02;;;;;;;262.73;145.60;;;1.50;99.90;;;;;;5051122;28;20257;-51
2023/01/19 11:33:34;;;;;;;353.10;117.07;;;1.50;99.90;;;;;;5040095;28;20293;-51
2023/01/19 11:36:07;;;;;;;135.83;121.50;;;1.60;99.90;;;;;;5047676;28;20221;-51
2023/01/19 11:38:42;;;;;;;108.13;71.33;;;1.70;99.90;;;;;;5043085;28;20247;-50
2023/01/19 11:41:17;;;;;;;248.27;114.90;;;1.80;99.90;;;;;;5050308;28;20258;-52
2023/01/19 11:43:48;;;;;;;512.27;179.13;;;1.70;99.90;;;;;;5050681;28;20209;-50
2023/01/19 11:46:17;;;;;;;150.97;97.17;;;1.80;99.90;;;;;;5050147;28;20222;-52
2023/01/19 11:48:51;;;;;;;151.00;94.33;;;1.70;99.90;;;;;;5050675;28;20296;-51
2023/01/19 11:51:22;;;;;;;614.10;149.97;;;1.80;99.90;;;;;;5050449;28;20198;-50
2023/01/19 11:53:52;;;;;;;615.40;159.83;;;1.90;99.90;;;;;;5039925;28;20364;-51
2023/01/19 11:56:23;;;;;;;565.70;173.97;;;1.90;99.90;;;;;;5046566;28;20721;-54
2023/01/19 11:58:51;;;;;;;319.23;122.37;;;2.00;99.90;;;;;;5046514;28;20241;-53
2023/01/19 12:01:23;;;;;;;165.87;71.53;;;2.10;99.90;;;;;;5050405;28;20245;-53
2023/01/19 12:03:57;;;;;;;197.33;132.80;;;2.10;99.90;;;;;;5034290;28;20205;-53
2023/01/19 12:06:31;;;;;;;137.77;89.07;;;2.10;99.90;;;;;;5050383;28;20213;-53
2023/01/19 12:09:03;;;;;;;56.47;41.20;;;2.10;99.90;;;;;;5048657;28;20208;-52
2023/01/19 12:11:34;;;;;;;91.80;82.30;;;2.10;99.90;;;;;;5043246;28;20238;-53
2023/01/19 12:14:03;;;;;;;104.57;63.17;;;2.20;99.90;;;;;;5050141;28;20636;-54
2023/01/19 12:16:34;;;;;;;82.53;66.50;;;2.30;99.90;;;;;;5050238;28;20778;-53
2023/01/19 12:19:06;;;;;;;161.20;82.80;;;2.20;99.90;;;;;;5050178;28;20281;-53
2023/01/19 12:21:36;;;;;;;389.83;103.13;;;2.30;99.90;;;;;;5050471;28;20435;-53
2023/01/19 12:24:15;;;;;;;57.10;48.87;;;2.30;99.90;;;;;;5050248;28;20232;-53
2023/01/19 12:26:49;;;;;;;767.57;168.40;;;2.30;99.90;;;;;;5050230;28;20244;-54
2023/01/19 12:29:20;;;;;;;129.97;107.13;;;2.30;99.90;;;;;;5049887;28;20253;-53
2023/01/19 12:32:19;;;;;;;69.87;63.20;;;2.30;99.90;;;;;;5039442;28;20291;-53
2023/01/19 12:34:48;;;;;;;171.33;99.10;;;2.40;99.90;;;;;;5033553;28;20289;-54
2023/01/19 12:37:38;;;;;;;305.93;98.70;;;2.40;99.90;;;;;;5031393;28;20206;-53